Time;durP1;ratioP1;P1;durP2;ratioP2;P2;SDS_P1;SDS_P2;PMS_P1;PMS_P2;Temp;Humidity;BMP_temperature;BMP_pressure;BME280_temperature;BME280_humidity;BME280_pressure;Samples;Min_cycle;Max_cycle;Signal;HPM_P1;HPM_P2
2024/02/12 00:02:28;;;;;;;17.00;1.90;;;11.00;99.90;;;;;;7383375;19;20342;-76
2024/02/12 00:04:59;;;;;;;6.22;1.77;;;11.00;99.90;;;;;;7383213;19;20017;-77
2024/02/12 00:07:32;;;;;;;15.43;2.13;;;11.00;99.90;;;;;;7384797;19;20021;-77
2024/02/12 00:10:05;;;;;;;6.53;1.50;;;10.90;99.90;;;;;;7385434;19;20002;-77
2024/02/12 00:12:34;;;;;;;17.77;2.33;;;10.90;99.90;;;;;;7384181;19;20007;-77
2024/02/12 00:15:11;;;;;;;8.95;1.92;;;10.90;99.90;;;;;;7396531;19;20013;-76
2024/02/12 00:17:44;;;;;;;5.47;1.40;;;10.90;99.90;;;;;;7404806;19;20003;-77
2024/02/12 00:20:16;;;;;;;10.10;1.75;;;10.90;99.90;;;;;;7381822;19;20011;-77
2024/02/12 00:22:45;;;;;;;14.50;2.20;;;10.80;99.90;;;;;;7382612;19;20002;-77
2024/02/12 00:25:17;;;;;;;27.25;3.13;;;10.80;99.90;;;;;;7383158;19;20119;-78
2024/02/12 00:27:47;;;;;;;8.95;2.15;;;10.70;99.90;;;;;;7383545;19;20033;-77
2024/02/12 00:30:18;;;;;;;24.08;2.25;;;10.80;99.90;;;;;;7383125;19;20010;-77
2024/02/12 00:32:46;;;;;;;13.07;2.33;;;10.70;99.90;;;;;;7405633;19;20013;-77
2024/02/12 00:35:15;;;;;;;9.90;2.25;;;10.60;99.90;;;;;;7381969;19;20256;-77
2024/02/12 00:37:44;;;;;;;18.60;2.45;;;10.60;99.90;;;;;;7382881;19;20067;-77
2024/02/12 00:40:14;;;;;;;9.07;2.03;;;10.60;99.90;;;;;;7381599;19;20023;-77
2024/02/12 00:42:45;;;;;;;11.63;2.08;;;10.60;99.90;;;;;;7383558;19;20369;-76
2024/02/12 00:45:14;;;;;;;12.05;2.55;;;10.60;99.90;;;;;;7384176;19;20248;-78
2024/02/12 00:47:44;;;;;;;14.30;2.20;;;10.60;99.90;;;;;;7407318;19;20346;-78
2024/02/12 00:50:15;;;;;;;13.35;2.45;;;10.50;99.90;;;;;;7387158;19;20072;-78
2024/02/12 00:52:43;;;;;;;10.70;1.90;;;10.50;99.90;;;;;;7386140;19;20003;-79
2024/02/12 00:55:13;;;;;;;7.75;1.73;;;10.50;99.90;;;;;;7385506;19;20246;-77
2024/02/12 00:57:46;;;;;;;21.77;2.58;;;10.50;99.90;;;;;;7381795;19;20042;-77
2024/02/12 01:00:16;;;;;;;14.32;2.42;;;10.50;99.90;;;;;;7381529;19;20042;-77
2024/02/12 01:02:45;;;;;;;20.80;2.33;;;10.50;99.90;;;;;;7405672;19;20029;-76
2024/02/12 01:05:17;;;;;;;12.10;1.67;;;10.50;99.90;;;;;;7381821;19;20010;-77
2024/02/12 01:07:46;;;;;;;15.40;2.63;;;10.50;99.90;;;;;;7380633;19;20007;-76
2024/02/12 01:10:15;;;;;;;6.80;2.30;;;10.40;99.90;;;;;;7382230;19;20496;-77
2024/02/12 01:12:47;;;;;;;7.15;2.10;;;10.40;99.90;;;;;;7382162;19;20256;-77
2024/02/12 01:15:18;;;;;;;4.97;1.55;;;10.40;99.90;;;;;;7381029;19;20054;-76
2024/02/12 01:17:47;;;;;;;8.68;1.85;;;10.40;99.90;;;;;;7402713;19;20058;-76
2024/02/12 01:20:16;;;;;;;7.03;1.90;;;10.40;99.90;;;;;;7379208;19;20349;-77
2024/02/12 01:22:45;;;;;;;12.52;2.03;;;10.40;99.90;;;;;;7380076;19;20003;-76
2024/02/12 01:25:14;;;;;;;13.68;1.88;;;10.30;99.90;;;;;;7380166;19;20062;-77
2024/02/12 01:27:42;;;;;;;20.75;2.67;;;10.30;99.90;;;;;;7380330;19;20007;-77
2024/02/12 01:30:15;;;;;;;4.10;1.85;;;10.20;99.90;;;;;;7380483;19;20493;-77
2024/02/12 01:32:43;;;;;;;8.48;1.60;;;10.30;99.90;;;;;;7402204;19;20010;-78
2024/02/12 01:35:16;;;;;;;10.48;1.70;;;10.20;99.90;;;;;;7380231;19;20011;-78
2024/02/12 01:37:44;;;;;;;12.75;2.20;;;10.30;99.90;;;;;;7380922;19;19999;-77
2024/02/12 01:40:13;;;;;;;16.10;2.85;;;10.30;99.90;;;;;;7381076;19;20036;-78
2024/02/12 01:42:42;;;;;;;14.73;2.35;;;10.30;99.90;;;;;;7382832;19;19998;-76
2024/02/12 01:45:23;;;;;;;11.10;1.80;;;10.30;99.90;;;;;;7380856;19;20006;-77
2024/02/12 01:47:57;;;;;;;9.77;2.00;;;10.20;99.90;;;;;;7400939;19;20493;-76
2024/02/12 01:50:29;;;;;;;12.73;2.17;;;10.20;99.90;;;;;;7378970;19;20010;-77
2024/02/12 01:52:57;;;;;;;13.15;2.65;;;10.30;99.90;;;;;;7379184;19;20031;-75
2024/02/12 01:55:26;;;;;;;7.00;1.95;;;10.20;99.90;;;;;;7377757;19;19999;-76
2024/02/12 01:57:55;;;;;;;11.07;2.15;;;10.20;99.90;;;;;;7383642;19;20006;-77
2024/02/12 02:00:27;;;;;;;8.38;2.30;;;10.20;99.90;;;;;;7381783;19;20103;-76
2024/02/12 02:02:56;;;;;;;8.80;2.55;;;10.20;99.90;;;;;;7401784;19;20006;-76
2024/02/12 02:05:25;;;;;;;11.52;2.22;;;10.20;99.90;;;;;;7378486;19;20015;-76
2024/02/12 02:07:56;;;;;;;7.93;2.03;;;10.20;99.90;;;;;;7378736;19;20002;-76
2024/02/12 02:10:25;;;;;;;;;;;10.20;99.90;;;;;;7379183;19;20007;-77
2024/02/12 02:12:56;;;;;;;9.77;2.40;;;10.20;99.90;;;;;;7377831;19;19907;-76
2024/02/12 02:15:28;;;;;;;16.85;2.35;;;10.20;99.90;;;;;;7378770;19;22093;-76
2024/02/12 02:17:58;;;;;;;15.38;2.10;;;10.20;99.90;;;;;;7406815;19;20046;-76
2024/02/12 02:20:29;;;;;;;16.48;1.83;;;10.30;99.90;;;;;;7385880;19;20012;-76
2024/02/12 02:22:59;;;;;;;15.00;2.97;;;10.30;99.90;;;;;;7387924;19;20043;-77
2024/02/12 02:25:31;;;;;;;9.02;2.80;;;10.30;99.90;;;;;;7389776;19;20007;-77
2024/02/12 02:27:59;;;;;;;;;;;10.30;99.90;;;;;;7390294;19;20006;-77
2024/02/12 02:30:28;;;;;;;17.85;2.63;;;10.30;99.90;;;;;;7391298;19;19915;-77
2024/02/12 02:32:56;;;;;;;8.25;2.20;;;10.30;99.90;;;;;;7399756;19;20003;-76
2024/02/12 02:35:25;;;;;;;8.65;2.25;;;10.30;99.90;;;;;;7382009;19;20007;-77
2024/02/12 02:37:54;;;;;;;11.93;2.38;;;10.30;99.90;;;;;;7381034;19;20361;-76
2024/02/12 02:40:23;;;;;;;10.38;2.47;;;10.30;99.90;;;;;;7382433;19;20501;-76
2024/02/12 02:42:54;;;;;;;13.73;2.58;;;10.30;99.90;;;;;;7381809;19;20007;-77
2024/02/12 02:45:25;;;;;;;14.30;2.58;;;10.30;99.90;;;;;;7378168;19;20023;-77
2024/02/12 02:47:56;;;;;;;7.22;2.35;;;10.30;99.90;;;;;;7399086;19;20038;-77
2024/02/12 02:50:26;;;;;;;13.98;2.30;;;10.30;99.90;;;;;;7378534;19;20002;-77
2024/02/12 02:52:58;;;;;;;12.57;2.40;;;10.30;99.90;;;;;;7380440;19;20006;-77
2024/02/12 02:55:27;;;;;;;13.27;2.13;;;10.30;99.90;;;;;;7379936;19;20007;-77
2024/02/12 02:58:01;;;;;;;10.70;2.40;;;10.30;99.90;;;;;;7379629;19;20095;-77
2024/02/12 03:00:30;;;;;;;11.55;2.17;;;10.30;99.90;;;;;;7386136;19;20007;-77
2024/02/12 03:03:00;;;;;;;12.52;2.20;;;10.40;99.90;;;;;;7408395;19;20252;-77
2024/02/12 03:05:29;;;;;;;11.45;2.25;;;10.40;99.90;;;;;;7386050;19;20006;-77
2024/02/12 03:07:58;;;;;;;5.47;2.17;;;10.40;99.90;;;;;;7385870;19;20039;-77
2024/02/12 03:10:27;;;;;;;10.63;2.22;;;10.50;99.90;;;;;;7386255;19;20397;-77
2024/02/12 03:13:01;;;;;;;12.32;2.03;;;10.50;99.90;;;;;;7386111;19;20027;-77
2024/02/12 03:15:31;;;;;;;10.38;2.42;;;10.50;99.90;;;;;;7385954;19;20039;-77
2024/02/12 03:18:00;;;;;;;8.63;2.08;;;10.50;99.90;;;;;;7407680;19;19998;-77
2024/02/12 03:20:29;;;;;;;17.23;2.90;;;10.50;99.90;;;;;;7383567;19;20006;-77
2024/02/12 03:22:58;;;;;;;9.65;2.53;;;10.50;99.90;;;;;;7383640;19;20002;-77
2024/02/12 03:25:26;;;;;;;16.02;2.38;;;10.50;99.90;;;;;;7383873;19;20007;-77
2024/02/12 03:27:56;;;;;;;7.82;1.73;;;10.50;99.90;;;;;;7384311;19;20006;-77
2024/02/12 03:30:27;;;;;;;10.65;2.60;;;10.50;99.90;;;;;;7384164;19;20054;-77
2024/02/12 03:32:56;;;;;;;13.38;2.47;;;10.50;99.90;;;;;;7406720;19;20046;-76
2024/02/12 03:35:26;;;;;;;14.48;2.45;;;10.60;99.90;;;;;;7385723;19;20026;-77
2024/02/12 03:37:55;;;;;;;15.18;2.25;;;10.60;99.90;;;;;;7385896;19;20291;-76
2024/02/12 03:40:28;;;;;;;11.23;2.53;;;10.60;99.90;;;;;;7383981;19;20006;-76
2024/02/12 03:43:00;;;;;;;8.38;1.98;;;10.60;99.90;;;;;;7382185;19;20003;-76
2024/02/12 03:45:34;;;;;;;5.60;2.10;;;10.60;99.90;;;;;;7384161;19;20011;-75
2024/02/12 03:59:50;;;;;;;7.75;2.45;;;10.60;99.90;;;;;;7404599;19;20010;-76
2024/02/12 04:01:43;;;;;;;7.90;2.22;;;10.60;99.90;;;;;;7382029;19;20087;-77
2024/02/12 04:04:12;;;;;;;11.07;2.25;;;10.60;99.90;;;;;;7381257;19;20014;-76
2024/02/12 04:06:41;;;;;;;6.45;1.63;;;10.60;99.90;;;;;;7383123;19;20009;-76
2024/02/12 04:09:10;;;;;;;12.63;2.22;;;10.60;99.90;;;;;;7402895;19;20011;-77
2024/02/12 04:11:43;;;;;;;12.00;3.17;;;10.60;99.90;;;;;;7381044;19;20233;-77
2024/02/12 04:14:12;;;;;;;12.20;2.72;;;10.60;99.90;;;;;;7381235;19;20234;-77
2024/02/12 04:16:43;;;;;;;8.43;2.38;;;10.60;99.90;;;;;;7381986;19;20020;-76
2024/02/12 04:19:12;;;;;;;16.23;2.60;;;10.60;99.90;;;;;;7381768;19;20080;-76
2024/02/12 04:21:42;;;;;;;8.23;2.78;;;10.60;99.90;;;;;;7381933;19;20106;-76
2024/02/12 04:24:11;;;;;;;10.48;2.40;;;10.60;99.90;;;;;;7396173;19;20098;-77
2024/02/12 04:26:40;;;;;;;17.45;3.25;;;10.60;99.90;;;;;;7404577;19;20066;-76
2024/02/12 04:29:10;;;;;;;10.90;2.97;;;10.70;99.90;;;;;;7384956;19;20019;-76
2024/02/12 04:31:39;;;;;;;12.27;2.45;;;10.70;99.90;;;;;;7385047;19;20007;-76
2024/02/12 04:34:13;;;;;;;9.55;2.40;;;10.70;99.90;;;;;;7383001;19;20011;-77
2024/02/12 04:36:42;;;;;;;25.27;2.75;;;10.60;99.90;;;;;;7382616;19;20019;-78
2024/02/12 04:39:16;;;;;;;11.65;2.20;;;10.60;99.90;;;;;;7397992;19;20366;-76
2024/02/12 04:41:45;;;;;;;12.05;2.67;;;10.60;99.90;;;;;;7404155;19;20006;-75
2024/02/12 04:44:14;;;;;;;13.20;2.53;;;10.60;99.90;;;;;;7383357;19;20023;-76
2024/02/12 04:46:43;;;;;;;12.60;2.55;;;10.60;99.90;;;;;;7381291;19;20015;-76
2024/02/12 04:49:15;;;;;;;12.32;2.75;;;10.70;99.90;;;;;;7381711;19;20002;-76
2024/02/12 04:51:44;;;;;;;10.23;2.25;;;10.70;99.90;;;;;;7381776;19;20003;-75
2024/02/12 04:54:13;;;;;;;10.02;2.22;;;10.70;99.90;;;;;;7379131;19;20014;-76
2024/02/12 04:56:42;;;;;;;6.30;2.13;;;10.70;99.90;;;;;;7402449;19;20014;-76
2024/02/12 04:59:18;;;;;;;11.38;2.55;;;10.70;99.90;;;;;;7383699;19;20027;-76
2024/02/12 05:01:47;;;;;;;10.80;2.63;;;10.70;99.90;;;;;;7387311;19;20013;-76
2024/02/12 05:04:21;;;;;;;13.82;3.38;;;10.70;99.90;;;;;;7393126;19;20011;-76
2024/02/12 05:06:50;;;;;;;12.75;2.47;;;10.60;99.90;;;;;;7390347;19;20248;-77
2024/02/12 05:09:19;;;;;;;6.60;2.38;;;10.70;99.90;;;;;;7387540;19;20042;-77
2024/02/12 05:11:48;;;;;;;11.95;2.60;;;10.60;99.90;;;;;;7411102;19;20007;-76
2024/02/12 05:14:17;;;;;;;8.10;2.47;;;10.70;99.90;;;;;;7383919;19;20062;-77
2024/02/12 05:16:47;;;;;;;7.00;2.78;;;10.70;99.90;;;;;;7380100;19;20048;-76
2024/02/12 05:24:42;;;;;;;13.73;2.78;;;10.70;99.90;;;;;;7384598;19;20007;-77
2024/02/12 05:27:10;;;;;;;12.40;2.17;;;10.70;99.90;;;;;;7403035;19;20019;-77
2024/02/12 05:29:40;;;;;;;30.83;2.72;;;10.70;99.90;;;;;;7383740;19;20007;-77
2024/02/12 05:32:09;;;;;;;14.02;2.60;;;10.60;99.90;;;;;;7379996;19;20023;-76
2024/02/12 05:34:38;;;;;;;11.32;2.55;;;10.60;99.90;;;;;;7381962;19;20003;-76
2024/02/12 05:37:09;;;;;;;19.60;2.63;;;10.60;99.90;;;;;;7382695;19;20272;-76
2024/02/12 05:39:38;;;;;;;9.27;2.42;;;10.50;99.90;;;;;;7383146;19;20010;-75
2024/02/12 05:42:07;;;;;;;26.42;2.90;;;10.50;99.90;;;;;;7400882;19;20357;-76
2024/02/12 05:44:36;;;;;;;14.93;2.83;;;10.50;99.90;;;;;;7378455;19;20007;-76
2024/02/12 05:47:05;;;;;;;6.28;2.25;;;10.50;99.90;;;;;;7377773;19;20025;-76
2024/02/12 05:49:35;;;;;;;11.75;2.67;;;10.50;99.90;;;;;;7379132;19;20027;-76
2024/02/12 05:52:09;;;;;;;13.32;2.40;;;10.50;99.90;;;;;;7377618;19;20003;-76
2024/02/12 05:54:38;;;;;;;8.13;2.38;;;10.50;99.90;;;;;;7379592;19;20007;-77
2024/02/12 05:57:09;;;;;;;21.55;2.70;;;10.60;99.90;;;;;;7399876;19;20010;-76
2024/02/12 05:59:38;;;;;;;15.20;2.92;;;10.50;99.90;;;;;;7378285;19;20009;-77
2024/02/12 06:02:07;;;;;;;13.07;2.60;;;10.60;99.90;;;;;;7377955;19;20066;-76
2024/02/12 06:04:36;;;;;;;16.17;3.08;;;10.60;99.90;;;;;;7377838;19;20684;-76
2024/02/12 06:07:07;;;;;;;14.32;3.35;;;10.60;99.90;;;;;;7377124;19;20095;-77
2024/02/12 06:09:41;;;;;;;9.77;2.90;;;10.60;99.90;;;;;;7379593;19;20327;-77
2024/02/12 06:12:13;;;;;;;13.65;3.40;;;10.60;99.90;;;;;;7401258;19;20014;-78
2024/02/12 06:14:42;;;;;;;8.38;2.40;;;10.60;99.90;;;;;;7378051;19;20030;-76
2024/02/12 06:17:11;;;;;;;12.32;2.80;;;10.60;99.90;;;;;;7380086;19;20070;-77
2024/02/12 06:19:40;;;;;;;14.73;2.58;;;10.50;99.90;;;;;;7381025;19;20013;-77
2024/02/12 06:22:10;;;;;;;11.07;2.72;;;10.60;99.90;;;;;;7380134;19;19998;-77
2024/02/12 06:24:42;;;;;;;13.45;3.28;;;10.50;99.90;;;;;;7378623;19;20265;-77
2024/02/12 06:27:10;;;;;;;7.20;2.30;;;10.50;99.90;;;;;;7400135;19;20010;-77
2024/02/12 06:29:40;;;;;;;21.90;3.72;;;10.50;99.90;;;;;;7377878;19;20006;-77
2024/02/12 06:32:14;;;;;;;13.70;3.65;;;10.50;99.90;;;;;;7381705;19;20299;-77
2024/02/12 06:34:45;;;;;;;17.88;3.20;;;10.50;99.90;;;;;;7389419;19;20010;-76
2024/02/12 06:37:14;;;;;;;16.35;3.22;;;10.60;99.90;;;;;;7385250;19;20393;-76
2024/02/12 06:39:45;;;;;;;19.70;3.35;;;10.50;99.90;;;;;;7385507;19;20167;-77
2024/02/12 06:42:14;;;;;;;;;;;10.50;99.90;;;;;;7407200;19;20011;-77
2024/02/12 06:44:43;;;;;;;16.20;3.00;;;10.50;99.90;;;;;;7384439;19;20444;-77
2024/02/12 06:47:11;;;;;;;17.75;3.40;;;10.50;99.90;;;;;;7384738;19;20082;-78
2024/02/12 06:49:41;;;;;;;15.27;2.80;;;10.50;99.90;;;;;;7388251;19;20006;-77
2024/02/12 06:52:13;;;;;;;17.15;4.03;;;10.60;99.90;;;;;;7385373;19;20027;-77
2024/02/12 06:54:43;;;;;;;16.33;3.15;;;10.60;99.90;;;;;;7385659;19;20612;-76
2024/02/12 06:57:15;;;;;;;12.90;2.95;;;10.60;99.90;;;;;;7408472;19;20361;-78
2024/02/12 06:59:43;;;;;;;16.70;3.05;;;10.60;99.90;;;;;;7384149;19;20009;-77
2024/02/12 07:02:12;;;;;;;13.10;3.03;;;10.60;99.90;;;;;;7384392;19;20011;-78
2024/02/12 07:04:41;;;;;;;11.25;3.47;;;10.60;99.90;;;;;;7387382;19;20003;-77
2024/02/12 07:07:10;;;;;;;12.75;3.72;;;10.60;99.90;;;;;;7387036;19;20007;-78
2024/02/12 07:09:40;;;;;;;6.55;2.95;;;10.60;99.90;;;;;;7386397;19;20019;-78
2024/02/12 07:12:09;;;;;;;12.57;2.42;;;10.60;99.90;;;;;;7405173;19;20685;-77
2024/02/12 07:14:41;;;;;;;10.68;2.58;;;10.60;99.90;;;;;;7384199;19;20030;-77
2024/02/12 07:17:10;;;;;;;;;;;10.60;99.90;;;;;;7386306;19;20019;-77
2024/02/12 07:19:38;;;;;;;8.35;2.20;;;10.70;99.90;;;;;;7386432;19;19917;-78
2024/02/12 07:22:07;;;;;;;20.65;3.13;;;10.60;99.90;;;;;;7389676;19;20022;-78
2024/02/12 07:24:36;;;;;;;14.18;3.70;;;10.70;99.90;;;;;;7391453;19;20006;-78
2024/02/12 07:27:06;;;;;;;25.85;3.58;;;10.70;99.90;;;;;;7413417;19;20020;-78
2024/02/12 07:29:37;;;;;;;6.20;2.75;;;10.60;99.90;;;;;;7392663;19;20023;-78
2024/02/12 07:32:09;;;;;;;15.65;3.10;;;10.60;99.90;;;;;;7386202;19;20238;-78
2024/02/12 07:34:38;;;;;;;11.73;3.63;;;10.60;99.90;;;;;;7383355;19;20672;-76
2024/02/12 07:37:07;;;;;;;15.35;3.28;;;10.60;99.90;;;;;;7383548;19;20003;-76
2024/02/12 07:39:38;;;;;;;14.38;4.57;;;10.60;99.90;;;;;;7382965;19;20059;-77
2024/02/12 07:42:08;;;;;;;11.07;4.32;;;10.60;99.90;;;;;;7405947;19;20013;-78
2024/02/12 07:44:41;;;;;;;27.23;7.00;;;10.70;99.90;;;;;;7393068;19;20030;-77
2024/02/12 07:47:17;;;;;;;31.98;6.35;;;10.70;99.90;;;;;;7404655;19;20027;-77
2024/02/12 07:49:51;;;;;;;18.52;6.80;;;10.70;99.90;;;;;;7402811;19;20086;-76
2024/02/12 07:52:20;;;;;;;27.17;6.38;;;10.80;99.90;;;;;;7401731;19;20003;-77
2024/02/12 07:54:48;;;;;;;22.65;5.68;;;10.80;99.90;;;;;;7401983;19;20011;-75
2024/02/12 07:57:17;;;;;;;16.35;4.88;;;10.90;99.90;;;;;;7409151;19;20007;-74
2024/02/12 07:59:46;;;;;;;11.88;5.07;;;10.80;99.90;;;;;;7369352;19;20007;-75
2024/02/12 08:02:17;;;;;;;9.85;4.40;;;10.90;99.90;;;;;;7384813;19;20276;-74
2024/02/12 08:04:46;;;;;;;21.80;5.65;;;10.90;99.90;;;;;;7384768;19;20039;-75
2024/02/12 08:07:16;;;;;;;24.00;5.38;;;10.90;99.90;;;;;;7407535;19;20026;-73
2024/02/12 08:09:45;;;;;;;18.77;5.60;;;10.80;99.90;;;;;;7386282;19;20006;-76
2024/02/12 08:12:19;;;;;;;152.85;18.02;;;10.80;99.90;;;;;;7383904;19;20256;-73
2024/02/12 08:14:48;;;;;;;11.68;4.72;;;10.80;99.90;;;;;;7384312;19;20003;-74
2024/02/12 08:17:24;;;;;;;12.85;4.32;;;10.80;99.90;;;;;;7383763;19;20091;-77
2024/02/12 08:19:54;;;;;;;14.02;4.85;;;10.90;99.90;;;;;;7384492;19;20090;-75
2024/02/12 08:22:23;;;;;;;14.20;4.20;;;10.90;99.90;;;;;;7405634;19;20070;-74
2024/02/12 08:24:51;;;;;;;23.75;5.28;;;10.90;99.90;;;;;;7384570;19;20006;-75
2024/02/12 08:27:20;;;;;;;13.35;3.97;;;10.90;99.90;;;;;;7382953;19;20007;-76
2024/02/12 08:29:49;;;;;;;10.77;4.07;;;11.00;99.90;;;;;;7383211;19;20020;-74
2024/02/12 08:32:22;;;;;;;22.00;4.68;;;11.00;99.90;;;;;;7383122;19;19998;-76
2024/02/12 08:34:52;;;;;;;17.63;4.13;;;11.00;99.90;;;;;;7383342;19;20237;-76
2024/02/12 08:37:22;;;;;;;15.10;5.30;;;11.10;99.90;;;;;;7404812;19;20023;-76
2024/02/12 08:39:52;;;;;;;29.08;6.03;;;11.00;99.90;;;;;;7382978;19;20014;-75
2024/02/12 08:42:20;;;;;;;20.75;6.05;;;11.00;99.90;;;;;;7383093;19;20006;-76
2024/02/12 08:44:51;;;;;;;25.27;6.22;;;11.00;99.90;;;;;;7383802;19;20023;-75
2024/02/12 08:47:24;;;;;;;20.42;7.43;;;11.10;99.90;;;;;;7384216;19;20006;-77
2024/02/12 08:49:54;;;;;;;18.83;5.78;;;11.10;99.90;;;;;;7384030;19;20007;-76
2024/02/12 08:52:24;;;;;;;21.63;4.82;;;11.20;99.90;;;;;;7405928;19;20021;-75
2024/02/12 08:54:53;;;;;;;11.05;4.10;;;11.20;99.90;;;;;;7384393;19;20058;-79
2024/02/12 08:57:22;;;;;;;23.75;4.82;;;11.20;99.90;;;;;;7380686;19;20047;-75
2024/02/12 08:59:52;;;;;;;19.95;5.32;;;11.30;99.90;;;;;;7382434;19;20006;-74
2024/02/12 09:02:23;;;;;;;16.75;4.93;;;11.20;99.90;;;;;;7383180;19;20007;-73
2024/02/12 09:04:53;;;;;;;14.80;4.55;;;11.30;99.90;;;;;;7382915;19;20003;-74
2024/02/12 09:07:26;;;;;;;24.23;5.68;;;11.30;99.90;;;;;;7404183;19;20019;-75
2024/02/12 09:09:55;;;;;;;29.27;4.88;;;11.30;99.90;;;;;;7382166;19;20033;-75
2024/02/12 09:12:25;;;;;;;17.05;5.18;;;11.40;99.90;;;;;;7382207;19;20083;-76
2024/02/12 09:14:54;;;;;;;20.97;4.83;;;11.40;99.90;;;;;;7382472;19;20254;-75
2024/02/12 09:17:28;;;;;;;16.70;5.55;;;11.50;99.90;;;;;;7381781;19;20401;-75
2024/02/12 09:19:57;;;;;;;18.30;5.05;;;11.50;99.90;;;;;;7382448;19;20353;-76
2024/02/12 09:22:33;;;;;;;15.77;5.13;;;11.50;99.90;;;;;;7403923;19;20023;-74
2024/02/12 09:25:03;;;;;;;15.98;5.60;;;11.60;99.90;;;;;;7381524;19;20273;-77
2024/02/12 09:27:32;;;;;;;20.52;5.60;;;11.60;99.90;;;;;;7381284;19;20369;-76
2024/02/12 09:30:06;;;;;;;18.65;6.03;;;11.70;99.90;;;;;;7382503;19;20002;-76
2024/02/12 09:32:38;;;;;;;14.25;5.28;;;11.70;99.90;;;;;;7381787;19;20007;-74
2024/02/12 09:35:10;;;;;;;12.32;5.72;;;11.70;99.90;;;;;;7382079;19;20381;-78
2024/02/12 09:37:40;;;;;;;;;;;11.70;99.90;;;;;;7404884;19;20010;-74
2024/02/12 09:40:11;;;;;;;19.23;5.47;;;11.80;99.90;;;;;;7381053;19;19936;-75
2024/02/12 09:42:42;;;;;;;26.20;5.95;;;11.80;99.90;;;;;;7380976;19;20003;-75
2024/02/12 09:45:13;;;;;;;20.65;4.78;;;11.90;99.90;;;;;;7381179;19;20013;-74
2024/02/12 09:47:46;;;;;;;19.95;5.50;;;11.90;99.90;;;;;;7381700;19;20021;-75
2024/02/12 09:50:15;;;;;;;16.48;4.55;;;11.80;99.90;;;;;;7381029;19;20011;-73
2024/02/12 09:52:46;;;;;;;16.30;5.20;;;11.80;99.90;;;;;;7403021;19;20006;-75
2024/02/12 09:55:15;;;;;;;17.67;5.30;;;11.80;99.90;;;;;;7380642;19;20034;-74
2024/02/12 09:57:44;;;;;;;26.35;4.93;;;11.80;99.90;;;;;;7380267;19;20013;-74
2024/02/12 10:00:14;;;;;;;25.90;6.00;;;11.80;99.90;;;;;;7381594;19;20011;-74
2024/02/12 10:02:45;;;;;;;17.30;5.05;;;11.80;99.90;;;;;;7383142;19;20007;-76
2024/02/12 10:05:22;;;;;;;13.85;5.57;;;11.80;99.90;;;;;;7387170;19;20050;-79
2024/02/12 10:07:51;;;;;;;24.33;6.10;;;11.90;99.90;;;;;;7390576;19;20027;-80
2024/02/12 10:10:20;;;;;;;16.58;5.78;;;11.70;99.90;;;;;;7409890;19;20099;-76
2024/02/12 10:12:54;;;;;;;22.15;5.80;;;11.70;99.90;;;;;;7380968;19;20010;-74
2024/02/12 10:15:23;;;;;;;21.17;6.05;;;11.60;99.90;;;;;;7382259;19;20014;-76
2024/02/12 10:17:55;;;;;;;20.35;6.15;;;11.70;99.90;;;;;;7380804;19;20020;-76
2024/02/12 10:20:24;;;;;;;16.48;5.38;;;11.70;99.90;;;;;;7379899;19;20380;-74
2024/02/12 10:22:53;;;;;;;20.35;5.63;;;11.70;99.90;;;;;;7379590;19;20003;-76
2024/02/12 10:25:22;;;;;;;16.00;5.30;;;11.70;99.90;;;;;;7398747;19;20086;-74
2024/02/12 10:27:50;;;;;;;26.92;5.82;;;11.80;99.90;;;;;;7379348;19;20002;-75
2024/02/12 10:30:21;;;;;;;22.98;5.72;;;11.90;99.90;;;;;;7379205;19;20063;-77
2024/02/12 10:32:52;;;;;;;21.20;5.60;;;12.00;99.90;;;;;;7379043;19;20366;-75
2024/02/12 10:35:24;;;;;;;20.13;5.22;;;12.10;99.90;;;;;;7390820;19;20026;-77
2024/02/12 10:37:58;;;;;;;16.48;4.75;;;12.20;99.90;;;;;;7396510;19;20007;-77
2024/02/12 10:40:32;;;;;;;15.00;4.35;;;12.20;99.90;;;;;;7418185;19;20006;-76
2024/02/12 10:43:05;;;;;;;11.20;5.10;;;12.20;99.90;;;;;;7392906;19;20118;-75
2024/02/12 10:45:34;;;;;;;29.42;5.28;;;12.30;99.90;;;;;;7388746;19;20010;-74
2024/02/12 10:48:04;;;;;;;14.88;4.85;;;12.30;99.90;;;;;;7388788;19;20002;-75
2024/02/12 10:50:43;;;;;;;15.07;4.95;;;12.40;99.90;;;;;;7377703;19;20011;-75
2024/02/12 10:53:20;;;;;;;16.27;5.30;;;12.50;99.90;;;;;;7384129;19;20193;-79
2024/02/12 10:55:49;;;;;;;19.38;5.07;;;12.60;99.90;;;;;;7410873;19;20204;-78
2024/02/12 10:58:18;;;;;;;24.33;5.30;;;12.70;99.90;;;;;;7388000;19;20015;-77
2024/02/12 11:00:56;;;;;;;16.02;4.93;;;12.80;99.90;;;;;;7380402;19;20121;-76
2024/02/12 11:03:32;;;;;;;22.63;4.55;;;12.80;99.90;;;;;;7378898;19;20006;-76
2024/02/12 11:06:08;;;;;;;18.90;4.70;;;12.80;99.90;;;;;;7387306;19;19999;-77
2024/02/12 11:08:40;;;;;;;13.20;4.03;;;12.90;99.90;;;;;;7386457;19;20006;-79
2024/02/12 11:11:18;;;;;;;18.35;4.10;;;12.90;99.90;;;;;;7387013;19;20232;-80
2024/02/12 11:13:48;;;;;;;13.77;3.53;;;13.00;99.90;;;;;;7403968;19;20019;-76
2024/02/12 11:16:20;;;;;;;10.05;3.88;;;13.10;99.90;;;;;;7377629;19;20019;-76
2024/02/12 11:18:57;;;;;;;24.30;4.30;;;13.10;99.90;;;;;;7376156;19;20417;-76
2024/02/12 11:21:30;;;;;;;14.55;3.65;;;13.10;99.90;;;;;;7384853;19;19999;-75
2024/02/12 11:24:09;;;;;;;12.63;4.43;;;13.20;99.90;;;;;;7386513;19;20020;-75
2024/02/12 11:26:41;;;;;;;16.92;3.72;;;13.10;99.90;;;;;;7384117;19;20018;-76
2024/02/12 11:29:13;;;;;;;14.80;4.45;;;13.20;99.90;;;;;;7388073;19;20010;-77
2024/02/12 11:31:44;;;;;;;21.27;4.15;;;13.20;99.90;;;;;;7406648;19;20007;-78
2024/02/12 11:34:14;;;;;;;18.67;4.28;;;13.20;99.90;;;;;;7384523;19;20002;-77
2024/02/12 11:36:45;;;;;;;16.02;3.63;;;13.10;99.90;;;;;;7382658;19;20020;-79
2024/02/12 11:39:17;;;;;;;15.02;3.53;;;13.20;99.90;;;;;;7388925;19;19999;-76
2024/02/12 11:41:49;;;;;;;16.95;3.95;;;13.10;99.90;;;;;;7388098;19;20011;-77
2024/02/12 11:44:18;;;;;;;14.45;4.40;;;13.10;99.90;;;;;;7389587;19;20007;-78
2024/02/12 11:46:58;;;;;;;12.02;3.85;;;13.20;99.90;;;;;;7411491;19;20023;-83
2024/02/12 11:49:27;;;;;;;13.18;3.22;;;13.20;99.90;;;;;;7385619;19;20009;-75
2024/02/12 11:51:58;;;;;;;23.00;3.95;;;13.20;99.90;;;;;;7385354;19;20023;-78
2024/02/12 11:54:29;;;;;;;12.45;3.10;;;13.20;99.90;;;;;;7386001;19;20010;-74
2024/02/12 11:56:59;;;;;;;10.70;2.70;;;13.20;99.90;;;;;;7385495;19;20447;-77
2024/02/12 11:59:30;;;;;;;19.83;2.92;;;13.00;99.90;;;;;;7384582;19;20007;-76
2024/02/12 12:02:00;;;;;;;;;;;13.10;99.90;;;;;;7384575;19;20385;-76
2024/02/12 12:04:34;;;;;;;11.70;2.95;;;13.10;99.90;;;;;;7405262;19;19915;-77
2024/02/12 12:07:19;;;;;;;19.67;3.45;;;13.10;99.90;;;;;;7387428;19;20011;-78
2024/02/12 12:09:47;;;;;;;13.90;2.78;;;13.10;99.90;;;;;;7389128;19;20046;-78
2024/02/12 12:12:26;;;;;;;17.40;3.22;;;12.90;99.90;;;;;;7391479;19;20007;-77
2024/02/12 12:15:06;;;;;;;10.30;2.25;;;13.00;99.90;;;;;;7387827;19;20389;-77
2024/02/12 12:17:34;;;;;;;12.05;2.92;;;13.10;99.90;;;;;;7388100;19;20007;-78
2024/02/12 12:20:05;;;;;;;15.75;3.15;;;13.00;99.90;;;;;;7387680;19;20027;-78
2024/02/12 12:22:37;;;;;;;19.63;3.28;;;13.00;99.90;;;;;;7405699;19;20010;-77
2024/02/12 12:25:07;;;;;;;14.88;3.03;;;13.20;99.90;;;;;;7384480;19;20006;-77
2024/02/12 12:27:41;;;;;;;17.33;3.65;;;13.30;99.90;;;;;;7386263;19;20002;-78
2024/02/12 12:30:16;;;;;;;15.75;3.42;;;13.30;99.90;;;;;;7384630;19;20014;-77
2024/02/12 12:32:47;;;;;;;13.30;2.67;;;13.40;99.90;;;;;;7388114;19;20354;-78
2024/02/12 12:35:16;;;;;;;19.42;3.47;;;13.40;99.90;;;;;;7390610;19;20441;-78
2024/02/12 12:38:00;;;;;;;18.70;3.03;;;13.50;99.90;;;;;;7406749;19;20003;-78
2024/02/12 12:40:37;;;;;;;14.77;2.88;;;13.20;99.90;;;;;;7385678;19;20339;-77
2024/02/12 12:43:08;;;;;;;20.92;2.95;;;13.30;99.90;;;;;;7384863;19;20003;-77
2024/02/12 12:45:41;;;;;;;12.57;2.70;;;13.40;99.90;;;;;;7388020;19;20013;-79
2024/02/12 12:48:12;;;;;;;15.98;2.63;;;13.50;99.90;;;;;;7388450;19;20007;-77
2024/02/12 12:50:48;;;;;;;16.98;2.15;;;13.40;99.90;;;;;;7387900;19;20021;-78
2024/02/12 12:53:20;;;;;;;15.63;2.88;;;13.50;99.90;;;;;;7387308;19;20078;-78
2024/02/12 12:55:51;;;;;;;11.15;2.47;;;13.50;99.90;;;;;;7410011;19;20006;-78
2024/02/12 12:58:20;;;;;;;19.95;2.33;;;13.60;99.90;;;;;;7385612;19;20007;-78
2024/02/12 13:00:49;;;;;;;9.35;2.25;;;13.60;99.90;;;;;;7383255;19;20006;-77
2024/02/12 13:03:21;;;;;;;12.27;2.50;;;13.50;99.90;;;;;;7384067;19;20006;-76
2024/02/12 13:05:49;;;;;;;9.93;2.40;;;13.50;99.90;;;;;;7382899;19;20016;-75
2024/02/12 13:08:22;;;;;;;9.70;2.55;;;13.40;99.90;;;;;;7384339;19;20030;-75
2024/02/12 13:10:55;;;;;;;12.32;2.25;;;13.40;99.90;;;;;;7405580;19;20357;-79
2024/02/12 13:13:27;;;;;;;10.65;2.78;;;13.30;99.90;;;;;;7382843;19;20086;-75
2024/02/12 13:15:58;;;;;;;12.90;3.05;;;13.30;99.90;;;;;;7381816;19;20358;-75